Time;durP1;ratioP1;P1;durP2;ratioP2;P2;SDS_P1;SDS_P2;PMS_P1;PMS_P2;Temp;Humidity;BMP_temperature;BMP_pressure;BME280_temperature;BME280_humidity;BME280_pressure;Samples;Min_cycle;Max_cycle;Signal;HPM_P1;HPM_P2
2021/04/12 00:01:27;;;;;;;1.08;0.50;;;9.20;96.50;;;;;;5039185;28;20026;-72
2021/04/12 00:03:57;;;;;;;0.90;0.60;;;9.30;96.30;;;;;;5039225;28;20108;-73
2021/04/12 00:06:29;;;;;;;1.13;0.45;;;9.20;96.20;;;;;;5039101;28;20428;-72
2021/04/12 00:09:05;;;;;;;1.02;0.52;;;9.20;96.50;;;;;;5039044;28;20440;-73
2021/04/12 00:11:50;;;;;;;0.80;0.40;;;9.10;97.60;;;;;;5039288;28;20025;-73
2021/04/12 00:14:30;;;;;;;1.52;0.73;;;8.90;98.00;;;;;;5038861;28;20030;-72
2021/04/12 00:17:02;;;;;;;1.42;0.60;;;8.70;98.00;;;;;;5038911;28;20495;-72
2021/04/12 00:19:36;;;;;;;1.00;0.68;;;8.60;98.00;;;;;;5037823;28;20034;-72
2021/04/12 00:22:24;;;;;;;3.75;0.80;;;8.50;98.00;;;;;;5037745;28;20043;-72
2021/04/12 00:25:05;;;;;;;1.35;0.57;;;8.60;98.00;;;;;;5038564;28;20053;-73
2021/04/12 00:27:39;;;;;;;403.98;13.43;;;8.60;98.00;;;;;;5037673;28;20047;-72
2021/04/12 00:30:26;;;;;;;1794.88;67.50;;;8.60;98.00;;;;;;5038710;28;20021;-72
2021/04/12 00:33:04;;;;;;;1843.55;74.82;;;8.50;98.00;;;;;;5038809;28;20313;-72
2021/04/12 00:35:54;;;;;;;1011.92;41.38;;;8.50;98.00;;;;;;5038488;28;20033;-73
2021/04/12 00:38:38;;;;;;;201.80;7.95;;;8.40;98.00;;;;;;5037374;28;20035;-73
2021/04/12 00:41:43;;;;;;;49.85;3.58;;;8.40;98.00;;;;;;5038707;28;20113;-73
2021/04/12 00:44:16;;;;;;;2.95;1.10;;;8.30;98.00;;;;;;5037011;28;20038;-73
2021/04/12 00:47:14;;;;;;;1.50;1.10;;;8.20;98.00;;;;;;5038524;28;20105;-73
2021/04/12 00:49:45;;;;;;;2.50;0.90;;;8.30;98.00;;;;;;5038411;28;20095;-73
2021/04/12 00:52:55;;;;;;;1.00;0.70;;;8.30;98.00;;;;;;5037210;28;20029;-73
2021/04/12 00:55:26;;;;;;;4.05;0.50;;;8.40;98.00;;;;;;5035949;28;20053;-73
2021/04/12 00:58:19;;;;;;;1.30;0.38;;;8.50;98.00;;;;;;5037879;28;20048;-73
2021/04/12 01:01:08;;;;;;;0.98;0.60;;;8.70;98.00;;;;;;5037002;28;20025;-72
2021/04/12 01:04:11;;;;;;;0.60;0.50;;;8.80;97.50;;;;;;5038185;28;20104;-73
2021/04/12 01:07:10;;;;;;;0.90;0.47;;;8.80;96.70;;;;;;5036825;28;20034;-73
2021/04/12 01:09:38;;;;;;;1.15;0.52;;;8.80;97.70;;;;;;5038161;28;20025;-73
2021/04/12 01:12:41;;;;;;;1.10;0.88;;;8.80;98.00;;;;;;5037824;28;20033;-73
2021/04/12 01:15:34;;;;;;;2.83;0.57;;;8.90;98.00;;;;;;5037684;28;20018;-73
2021/04/12 01:18:00;;;;;;;1.70;0.60;;;8.90;97.00;;;;;;5037717;28;20033;-73
2021/04/12 01:20:47;;;;;;;3.03;0.50;;;8.90;96.80;;;;;;5037706;28;20022;-73
2021/04/12 01:23:39;;;;;;;0.77;0.60;;;8.80;96.40;;;;;;5037608;28;20029;-73
2021/04/12 01:26:42;;;;;;;1.67;0.70;;;8.80;97.20;;;;;;5037487;28;20120;-72
2021/04/12 01:29:29;;;;;;;1.83;1.02;;;8.70;98.00;;;;;;5037462;28;20018;-72
2021/04/12 01:32:32;;;;;;;1.20;0.73;;;8.60;98.00;;;;;;5037728;28;20358;-72
2021/04/12 01:35:27;;;;;;;2.47;0.70;;;8.50;98.00;;;;;;5037353;28;20061;-73
2021/04/12 01:37:52;;;;;;;2.30;1.65;;;8.60;98.00;;;;;;5037631;28;20041;-73
2021/04/12 01:40:38;;;;;;;3.20;2.60;;;8.60;98.00;;;;;;5037571;28;20106;-72
2021/04/12 01:43:39;;;;;;;3.88;2.60;;;8.40;96.40;;;;;;5037528;28;20046;-72
2021/04/12 01:46:16;;;;;;;3.60;2.08;;;8.20;97.30;;;;;;5037455;28;20051;-72
2021/04/12 01:48:53;;;;;;;3.03;2.10;;;8.10;98.00;;;;;;5037138;28;20029;-73
2021/04/12 01:51:32;;;;;;;3.13;1.10;;;8.10;98.00;;;;;;5037729;28;20029;-73
2021/04/12 01:54:16;;;;;;;3.10;0.90;;;8.10;98.00;;;;;;5036786;28;20034;-73
2021/04/12 01:57:03;;;;;;;1.05;0.75;;;8.20;98.00;;;;;;5036979;28;20068;-73
2021/04/12 01:59:47;;;;;;;;;;;8.20;98.00;;;;;;5037469;28;20480;-73
2021/04/12 02:02:23;;;;;;;1.45;0.60;;;8.30;98.00;;;;;;5037144;28;19912;-73
2021/04/12 02:04:58;;;;;;;;;;;8.40;98.00;;;;;;5037353;28;20099;-73
2021/04/12 02:07:51;;;;;;;0.70;0.60;;;8.50;98.00;;;;;;5037379;28;20237;-73
2021/04/12 02:10:41;;;;;;;4.22;0.40;;;8.60;98.00;;;;;;5037107;28;20026;-73
2021/04/12 02:13:45;;;;;;;0.73;0.38;;;8.60;98.00;;;;;;5035772;28;20038;-72
2021/04/12 02:16:47;;;;;;;0.82;0.60;;;8.70;98.00;;;;;;5035749;28;20025;-72
2021/04/12 02:19:49;;;;;;;1.02;0.40;;;8.70;98.00;;;;;;5037014;28;20037;-73
2021/04/12 02:22:36;;;;;;;0.82;0.50;;;8.70;98.00;;;;;;5037168;28;20421;-73
2021/04/12 02:25:11;;;;;;;1.00;0.47;;;8.70;98.00;;;;;;5036355;28;20069;-73
2021/04/12 02:27:50;;;;;;;0.45;0.30;;;8.70;98.00;;;;;;5036712;28;20045;-73
2021/04/12 02:30:30;;;;;;;1.75;0.40;;;8.70;98.00;;;;;;5036626;28;20079;-73
2021/04/12 02:33:02;;;;;;;1.10;0.40;;;8.70;98.00;;;;;;5036925;28;20310;-73
2021/04/12 02:35:53;;;;;;;1.58;0.50;;;8.80;98.00;;;;;;5036518;28;20075;-73
2021/04/12 02:38:25;;;;;;;0.50;0.25;;;8.80;98.00;;;;;;5036545;28;20429;-73
2021/04/12 02:41:04;;;;;;;0.38;0.30;;;8.80;98.00;;;;;;5035511;28;20083;-73
2021/04/12 02:43:40;;;;;;;1.85;0.30;;;8.80;98.00;;;;;;5036748;28;20022;-73
2021/04/12 02:46:40;;;;;;;0.30;0.30;;;8.80;98.00;;;;;;5036798;28;20302;-73
2021/04/12 02:49:50;;;;;;;0.47;0.20;;;8.80;98.00;;;;;;5035900;28;20056;-73
2021/04/12 02:52:37;;;;;;;0.88;0.20;;;8.80;98.00;;;;;;5036155;28;20053;-73
2021/04/12 02:55:17;;;;;;;0.57;0.22;;;8.80;98.00;;;;;;5036792;28;20052;-73
2021/04/12 02:58:08;;;;;;;0.30;0.20;;;8.90;98.00;;;;;;5036936;28;20035;-73
2021/04/12 03:01:21;;;;;;;1.42;0.45;;;8.90;98.00;;;;;;5036617;28;20038;-73
2021/04/12 03:04:13;;;;;;;0.30;0.20;;;8.80;98.00;;;;;;5035824;28;20026;-72
2021/04/12 03:06:48;;;;;;;2.05;0.20;;;8.90;98.00;;;;;;5037745;28;20057;-73
2021/04/12 03:09:36;;;;;;;0.25;0.20;;;8.90;98.00;;;;;;5040360;28;20021;-73
2021/04/12 03:12:09;;;;;;;0.45;0.30;;;9.00;98.00;;;;;;5040102;28;20037;-73
2021/04/12 03:14:52;;;;;;;0.30;0.20;;;9.10;98.00;;;;;;5040101;28;20075;-73
2021/04/12 03:17:47;;;;;;;0.25;0.10;;;9.10;98.00;;;;;;5040286;28;20188;-73
2021/04/12 03:20:19;;;;;;;2.53;0.20;;;9.10;98.00;;;;;;5040119;28;20037;-73
2021/04/12 03:23:00;;;;;;;1.02;0.20;;;9.10;98.00;;;;;;5039873;28;20037;-73
2021/04/12 03:25:50;;;;;;;0.28;0.20;;;9.00;98.00;;;;;;5039573;28;20437;-73
2021/04/12 03:28:40;;;;;;;0.25;0.20;;;9.00;98.00;;;;;;5040336;28;20398;-72
2021/04/12 03:31:22;;;;;;;1.23;0.22;;;9.00;98.00;;;;;;5039680;28;20371;-73
2021/04/12 03:34:06;;;;;;;0.10;0.10;;;9.00;98.00;;;;;;5040069;28;20032;-72
2021/04/12 03:37:06;;;;;;;0.30;0.20;;;9.00;98.00;;;;;;5039579;28;20467;-73
2021/04/12 03:40:05;;;;;;;1.23;0.10;;;9.10;97.90;;;;;;5039915;28;20025;-73
2021/04/12 03:43:04;;;;;;;0.10;0.10;;;9.10;98.00;;;;;;5039865;28;20079;-72
2021/04/12 03:46:01;;;;;;;0.10;0.10;;;9.10;98.00;;;;;;5039623;28;20109;-73
2021/04/12 03:48:59;;;;;;;1.10;0.20;;;9.10;98.00;;;;;;5039489;28;20344;-73
2021/04/12 03:51:46;;;;;;;0.57;0.10;;;9.10;98.00;;;;;;5039681;28;20029;-72
2021/04/12 03:54:30;;;;;;;;;;;9.10;98.00;;;;;;5039692;28;20033;-72
2021/04/12 03:57:07;;;;;;;0.38;0.28;;;9.10;98.00;;;;;;5039229;28;20298;-72
2021/04/12 04:00:13;;;;;;;0.30;0.10;;;9.00;98.00;;;;;;5039339;28;20029;-73
2021/04/12 04:02:43;;;;;;;0.30;0.20;;;9.00;98.00;;;;;;5038565;28;20029;-73
2021/04/12 04:05:20;;;;;;;0.32;0.10;;;9.00;98.00;;;;;;5038937;28;20417;-72
2021/04/12 04:08:01;;;;;;;0.22;0.10;;;9.00;98.00;;;;;;5039087;28;20113;-72
2021/04/12 04:10:29;;;;;;;0.13;0.10;;;9.00;98.00;;;;;;5039150;28;20317;-72
2021/04/12 04:13:20;;;;;;;0.30;0.20;;;9.00;98.00;;;;;;5039511;28;20021;-73
2021/04/12 04:16:19;;;;;;;1.50;0.20;;;9.00;98.00;;;;;;5038857;28;20429;-72
2021/04/12 04:18:57;;;;;;;1.95;0.30;;;9.00;98.00;;;;;;5038816;28;20317;-73
2021/04/12 04:21:29;;;;;;;0.20;0.20;;;9.00;98.00;;;;;;5039164;28;20436;-72
2021/04/12 04:23:54;;;;;;;0.20;0.10;;;9.00;98.00;;;;;;5038890;28;20342;-72
2021/04/12 04:26:42;;;;;;;0.65;0.20;;;9.10;98.00;;;;;;5038581;28;20077;-72
2021/04/12 04:29:31;;;;;;;0.90;0.20;;;9.10;98.00;;;;;;5038858;28;20018;-73
2021/04/12 04:32:00;;;;;;;1.88;0.25;;;9.00;98.00;;;;;;5037751;28;20152;-73
2021/04/12 04:34:31;;;;;;;1.88;0.20;;;9.00;98.00;;;;;;5038685;28;20053;-73
2021/04/12 04:37:07;;;;;;;2.22;0.20;;;9.00;98.00;;;;;;5038858;28;20040;-73
2021/04/12 04:39:52;;;;;;;0.15;0.10;;;9.00;98.00;;;;;;5038704;28;20031;-73
2021/04/12 04:42:45;;;;;;;0.40;0.30;;;9.00;98.00;;;;;;5038762;28;20349;-73
2021/04/12 04:45:10;;;;;;;0.30;0.20;;;9.00;98.00;;;;;;5038247;28;20025;-72
2021/04/12 04:47:36;;;;;;;4.30;0.32;;;9.00;98.00;;;;;;5038385;28;20099;-73
2021/04/12 04:50:26;;;;;;;0.28;0.20;;;9.00;98.00;;;;;;5038242;28;20025;-73
2021/04/12 04:53:29;;;;;;;14.75;0.50;;;9.00;98.00;;;;;;5038226;28;20421;-73
2021/04/12 04:56:21;;;;;;;18.27;0.73;;;9.00;98.00;;;;;;5038143;28;20037;-73
2021/04/12 04:58:46;;;;;;;127.35;3.65;;;9.00;98.00;;;;;;5038302;28;20025;-72
2021/04/12 05:01:39;;;;;;;146.38;4.30;;;9.00;98.00;;;;;;5036997;28;20056;-72
2021/04/12 05:04:10;;;;;;;18.88;1.20;;;8.90;98.00;;;;;;5038137;28;20033;-73
2021/04/12 05:07:00;;;;;;;2.40;0.85;;;8.80;98.00;;;;;;5038157;28;20092;-73
2021/04/12 05:09:44;;;;;;;0.75;0.40;;;8.70;98.00;;;;;;5037917;28;20022;-73
2021/04/12 05:12:36;;;;;;;0.88;0.43;;;8.70;98.00;;;;;;5037853;28;20022;-72
2021/04/12 05:15:29;;;;;;;0.95;0.20;;;8.80;98.00;;;;;;5037778;28;20025;-72
2021/04/12 05:18:12;;;;;;;2.20;0.32;;;9.00;98.00;;;;;;5037808;28;20025;-73
2021/04/12 05:21:14;;;;;;;0.35;0.20;;;9.10;98.00;;;;;;5037684;28;20513;-73
2021/04/12 05:23:46;;;;;;;1.27;0.40;;;9.10;98.00;;;;;;5036514;28;20041;-73
2021/04/12 05:26:39;;;;;;;0.60;0.30;;;9.20;98.00;;;;;;5037482;28;20064;-73
2021/04/12 05:29:23;;;;;;;0.93;0.30;;;9.30;98.00;;;;;;5036981;28;20029;-73
2021/04/12 05:32:13;;;;;;;2.13;0.30;;;9.30;98.00;;;;;;5037436;28;20031;-73
2021/04/12 05:35:06;;;;;;;4.13;0.30;;;9.30;98.00;;;;;;5037666;28;20108;-73
2021/04/12 05:37:34;;;;;;;0.55;0.40;;;9.20;98.00;;;;;;5037836;28;20033;-73
2021/04/12 05:40:00;;;;;;;0.65;0.25;;;9.20;98.00;;;;;;5037570;28;20087;-73
2021/04/12 05:42:46;;;;;;;1.02;0.32;;;9.30;98.00;;;;;;5037344;28;20029;-73
2021/04/12 05:45:31;;;;;;;;;;;9.30;98.00;;;;;;5037795;28;20052;-73
2021/04/12 05:48:33;;;;;;;0.70;0.65;;;9.40;98.00;;;;;;5037248;28;19905;-73
2021/04/12 05:51:29;;;;;;;0.68;0.22;;;9.40;98.00;;;;;;5037228;28;20017;-73
2021/04/12 05:54:22;;;;;;;0.93;0.20;;;9.50;98.00;;;;;;5037402;28;20037;-73
2021/04/12 05:57:32;;;;;;;1.55;0.40;;;9.50;98.00;;;;;;5036982;28;20025;-73
2021/04/12 06:00:15;;;;;;;1.40;0.30;;;9.60;98.00;;;;;;5036688;28;20048;-73
2021/04/12 06:03:03;;;;;;;1.33;0.35;;;9.50;98.00;;;;;;5037296;28;20105;-73
2021/04/12 06:06:07;;;;;;;0.68;0.28;;;9.40;98.00;;;;;;5036928;28;20033;-72
2021/04/12 06:08:45;;;;;;;2.80;0.40;;;9.40;98.00;;;;;;5036055;28;20033;-72
2021/04/12 06:11:32;;;;;;;2.67;0.50;;;9.40;98.00;;;;;;5037177;28;20111;-72
2021/04/12 06:14:13;;;;;;;3.03;0.30;;;9.30;98.00;;;;;;5036987;28;20336;-72
2021/04/12 06:17:20;;;;;;;0.70;0.28;;;9.20;98.00;;;;;;5037012;28;20322;-73
2021/04/12 06:20:04;;;;;;;0.77;0.30;;;9.30;98.00;;;;;;5036751;28;20025;-73
2021/04/12 06:22:33;;;;;;;2.65;0.30;;;9.30;98.00;;;;;;5037137;28;20036;-73
2021/04/12 06:25:29;;;;;;;4.28;0.30;;;9.40;98.00;;;;;;5036553;28;20046;-72
2021/04/12 06:28:16;;;;;;;0.50;0.20;;;9.50;98.00;;;;;;5036676;28;20030;-73
2021/04/12 06:30:45;;;;;;;0.52;0.25;;;9.50;98.00;;;;;;5035666;28;20033;-73
2021/04/12 06:33:47;;;;;;;2.55;0.50;;;9.60;98.00;;;;;;5036566;28;20106;-73
2021/04/12 06:36:35;;;;;;;0.47;0.20;;;9.60;98.00;;;;;;5036573;28;20414;-73
2021/04/12 06:39:06;;;;;;;2.15;0.32;;;9.70;98.00;;;;;;5036571;28;20079;-73
2021/04/12 06:42:09;;;;;;;0.50;0.13;;;9.70;98.00;;;;;;5039333;28;20159;-73
2021/04/12 06:45:05;;;;;;;1.60;0.20;;;9.70;98.00;;;;;;5040719;28;20037;-73
2021/04/12 06:47:55;;;;;;;0.95;0.20;;;9.80;98.00;;;;;;5040605;28;20022;-73
2021/04/12 06:50:50;;;;;;;1.65;0.10;;;9.80;98.00;;;;;;5040781;28;20030;-73
2021/04/12 06:53:48;;;;;;;1.42;0.20;;;9.80;98.00;;;;;;5040502;28;20418;-73
2021/04/12 06:56:21;;;;;;;1.33;0.20;;;9.70;98.00;;;;;;5040088;28;20034;-73
2021/04/12 06:58:56;;;;;;;0.30;0.10;;;9.60;98.00;;;;;;5040635;28;20028;-73
2021/04/12 07:01:24;;;;;;;0.10;0.10;;;9.50;98.00;;;;;;5040574;28;20116;-73
2021/04/12 07:04:09;;;;;;;0.90;0.20;;;9.50;98.00;;;;;;5040155;28;20425;-73
2021/04/12 07:07:20;;;;;;;0.35;0.10;;;9.50;98.00;;;;;;5040246;28;20014;-73
2021/04/12 07:10:15;;;;;;;0.20;0.10;;;9.60;98.00;;;;;;5039095;28;20432;-73
2021/04/12 07:13:05;;;;;;;0.13;0.10;;;9.70;98.00;;;;;;5039034;28;20048;-73
2021/04/12 07:15:43;;;;;;;0.10;0.10;;;9.80;98.00;;;;;;5040012;28;20414;-73
2021/04/12 07:18:45;;;;;;;0.32;0.10;;;9.90;98.00;;;;;;5040293;28;20048;-73
2021/04/12 07:21:31;;;;;;;1.65;0.20;;;9.90;98.00;;;;;;5040280;28;20083;-73
2021/04/12 07:24:15;;;;;;;;;;;10.00;98.00;;;;;;5040427;28;20061;-73
2021/04/12 07:27:20;;;;;;;0.50;0.10;;;10.10;98.00;;;;;;5038862;28;19983;-73
2021/04/12 07:30:23;;;;;;;0.40;0.13;;;10.20;98.00;;;;;;5039936;28;20028;-73
2021/04/12 07:33:23;;;;;;;1.58;0.13;;;10.20;98.00;;;;;;5039878;28;20030;-73
2021/04/12 07:36:10;;;;;;;5.60;0.50;;;10.30;98.00;;;;;;5039720;28;20017;-73
2021/04/12 07:39:17;;;;;;;0.32;0.20;;;10.40;98.00;;;;;;5038581;28;20034;-73
2021/04/12 07:42:14;;;;;;;0.20;0.15;;;10.40;98.00;;;;;;5039064;28;20544;-73
2021/04/12 07:44:58;;;;;;;0.50;0.15;;;10.50;98.00;;;;;;5039422;28;20108;-73
2021/04/12 07:47:44;;;;;;;0.10;0.10;;;10.50;98.00;;;;;;5039511;28;20033;-73
2021/04/12 07:50:30;;;;;;;1.05;0.50;;;10.50;98.00;;;;;;5039682;28;20405;-73
2021/04/12 07:53:26;;;;;;;1.90;0.60;;;10.50;98.00;;;;;;5039049;28;20033;-73
2021/04/12 07:56:08;;;;;;;0.20;0.17;;;10.60;98.00;;;;;;5039377;28;20091;-73
2021/04/12 07:59:10;;;;;;;2.80;0.20;;;10.60;96.40;;;;;;5039279;28;20025;-73
2021/04/12 08:02:16;;;;;;;1.40;0.30;;;10.50;97.00;;;;;;5039435;28;20031;-73
2021/04/12 08:05:20;;;;;;;0.82;0.25;;;10.50;98.00;;;;;;5039030;28;20025;-73
2021/04/12 08:07:52;;;;;;;0.30;0.20;;;10.60;97.50;;;;;;5039623;28;20352;-73
2021/04/12 08:10:45;;;;;;;0.20;0.10;;;10.60;98.00;;;;;;5039228;28;20143;-73
2021/04/12 08:13:32;;;;;;;1.38;0.40;;;10.60;98.00;;;;;;5038934;28;20029;-73
2021/04/12 08:16:22;;;;;;;0.77;0.30;;;10.60;98.00;;;;;;5039571;28;20365;-73
2021/04/12 08:19:00;;;;;;;1.52;0.32;;;10.70;98.00;;;;;;5039216;28;20034;-73
2021/04/12 08:21:54;;;;;;;0.80;0.50;;;10.70;98.00;;;;;;5039194;28;20075;-73
2021/04/12 08:24:44;;;;;;;1.08;0.70;;;10.70;97.00;;;;;;5038647;28;20056;-73
2021/04/12 08:27:47;;;;;;;0.63;0.43;;;10.60;97.40;;;;;;5038753;28;20508;-73
2021/04/12 08:30:35;;;;;;;1.52;0.82;;;10.50;98.00;;;;;;5038708;28;20025;-73
2021/04/12 08:33:47;;;;;;;1.20;0.90;;;10.50;98.00;;;;;;5038615;28;20025;-73
2021/04/12 08:36:48;;;;;;;1.10;0.80;;;10.50;97.60;;;;;;5037545;28;20386;-73
2021/04/12 08:39:47;;;;;;;73.13;3.17;;;10.40;98.00;;;;;;5038476;28;20022;-73
2021/04/12 08:42:16;;;;;;;9.90;1.40;;;10.40;98.00;;;;;;5037438;28;20021;-73
2021/04/12 08:45:19;;;;;;;1.45;0.70;;;10.40;98.00;;;;;;5038380;28;20488;-73
2021/04/12 08:48:22;;;;;;;1.35;0.50;;;10.30;98.00;;;;;;5038483;28;20013;-73
2021/04/12 08:50:53;;;;;;;5.45;0.70;;;10.30;98.00;;;;;;5037266;28;20325;-73
2021/04/12 08:53:43;;;;;;;0.50;0.40;;;10.20;98.00;;;;;;5038130;28;20034;-73
2021/04/12 08:56:35;;;;;;;1.23;0.60;;;10.20;98.00;;;;;;5038296;28;20065;-73
2021/04/12 08:59:19;;;;;;;1.23;0.70;;;10.20;98.00;;;;;;5038445;28;20041;-73
2021/04/12 09:02:23;;;;;;;6.47;0.88;;;10.20;98.00;;;;;;5038514;28;20029;-73
2021/04/12 09:05:15;;;;;;;2.08;0.88;;;10.20;98.00;;;;;;5036810;28;20044;-73
2021/04/12 09:07:53;;;;;;;2.15;1.20;;;10.20;98.00;;;;;;5036912;28;20074;-73
2021/04/12 09:10:56;;;;;;;5.00;1.00;;;10.20;98.00;;;;;;5038079;28;20326;-73
2021/04/12 09:14:06;;;;;;;1.40;0.98;;;10.30;98.00;;;;;;5037935;28;20021;-72
2021/04/12 09:16:38;;;;;;;2.10;1.20;;;10.30;98.00;;;;;;5038257;28;20303;-73
2021/04/12 09:19:29;;;;;;;1.33;0.85;;;10.30;98.00;;;;;;5038212;28;20085;-73
2021/04/12 09:22:20;;;;;;;8.90;1.42;;;10.30;98.00;;;;;;5038033;28;20025;-73
2021/04/12 09:25:14;;;;;;;13.73;1.48;;;10.40;98.00;;;;;;5037579;28;20132;-73
2021/04/12 09:28:05;;;;;;;0.70;0.47;;;10.40;98.00;;;;;;5038038;28;20033;-73
2021/04/12 09:31:14;;;;;;;1.25;0.60;;;10.30;98.00;;;;;;5037591;28;20040;-73
2021/04/12 09:34:22;;;;;;;1.33;0.57;;;10.30;98.00;;;;;;5035563;28;20457;-73
2021/04/12 09:37:10;;;;;;;1.67;0.60;;;10.30;98.00;;;;;;5034726;28;20041;-73
2021/04/12 09:40:00;;;;;;;1.10;0.60;;;10.30;98.00;;;;;;5037649;28;20034;-73
2021/04/12 09:42:47;;;;;;;1.00;0.40;;;10.30;98.00;;;;;;5037366;28;20341;-73
2021/04/12 09:45:50;;;;;;;1.27;0.50;;;10.40;97.70;;;;;;5037392;28;20037;-73
2021/04/12 09:48:48;;;;;;;0.93;0.30;;;10.40;97.50;;;;;;5037165;28;20036;-72
2021/04/12 09:51:23;;;;;;;0.65;0.35;;;10.40;97.50;;;;;;5036392;28;20033;-72
2021/04/12 09:54:26;;;;;;;0.20;0.20;;;10.40;97.80;;;;;;5037303;28;20061;-73
2021/04/12 09:57:13;;;;;;;1.23;0.30;;;10.40;97.40;;;;;;5037095;28;20095;-73
2021/04/12 10:00:03;;;;;;;0.60;0.30;;;10.40;97.70;;;;;;5037147;28;20052;-72
2021/04/12 10:02:47;;;;;;;0.43;0.30;;;10.50;97.80;;;;;;5037284;28;20029;-73
2021/04/12 10:05:42;;;;;;;0.57;0.10;;;10.50;97.80;;;;;;5035947;28;20322;-72
2021/04/12 10:08:16;;;;;;;0.65;0.30;;;10.50;97.80;;;;;;5037035;28;20044;-73
2021/04/12 10:11:19;;;;;;;0.40;0.30;;;10.40;97.30;;;;;;5036970;28;20026;-73
2021/04/12 10:14:14;;;;;;;0.50;0.28;;;10.30;98.00;;;;;;5035367;28;20017;-73
2021/04/12 10:16:44;;;;;;;0.98;0.40;;;10.30;96.70;;;;;;5045215;28;20030;-73
2021/04/12 10:19:16;;;;;;;0.40;0.20;;;10.20;97.40;;;;;;5036824;28;20029;-73
2021/04/12 10:22:00;;;;;;;0.73;0.30;;;10.20;98.00;;;;;;5037102;28;20033;-73
2021/04/12 10:24:32;;;;;;;0.57;0.30;;;10.20;98.00;;;;;;5036277;28;20036;-73
2021/04/12 10:27:10;;;;;;;0.93;0.43;;;10.30;98.00;;;;;;5036957;28;20045;-72
2021/04/12 10:30:01;;;;;;;2.90;0.43;;;10.40;98.00;;;;;;5036958;28;20030;-72
2021/04/12 10:32:32;;;;;;;0.40;0.30;;;10.50;97.90;;;;;;5035864;28;20372;-73
2021/04/12 10:35:05;;;;;;;0.60;0.20;;;10.50;98.00;;;;;;5036571;28;20083;-72
2021/04/12 10:37:37;;;;;;;0.45;0.28;;;10.40;98.00;;;;;;5035612;28;20029;-73
2021/04/12 10:40:15;;;;;;;1.13;0.20;;;10.30;98.00;;;;;;5036818;28;20029;-73
2021/04/12 10:43:19;;;;;;;1.15;0.60;;;10.40;98.00;;;;;;5037136;28;20021;-73
2021/04/12 10:45:48;;;;;;;0.43;0.30;;;10.40;98.00;;;;;;5034619;28;20033;-72
2021/04/12 10:48:26;;;;;;;0.93;0.60;;;10.50;97.60;;;;;;5036081;28;20034;-72
2021/04/12 10:51:01;;;;;;;0.50;0.45;;;10.40;98.00;;;;;;5036690;28;20040;-73
2021/04/12 10:53:39;;;;;;;0.65;0.45;;;10.50;98.00;;;;;;5035267;28;20037;-73
2021/04/12 10:56:21;;;;;;;1.08;0.40;;;10.50;98.00;;;;;;5036590;28;20045;-73
2021/04/12 10:58:55;;;;;;;0.80;0.40;;;10.50;98.00;;;;;;5036806;28;20029;-73
2021/04/12 11:01:46;;;;;;;0.60;0.32;;;10.40;97.80;;;;;;5036880;28;20025;-73
2021/04/12 11:04:31;;;;;;;2.58;0.45;;;10.50;98.00;;;;;;5036170;28;20539;-73
2021/04/12 11:07:08;;;;;;;0.77;0.40;;;10.50;98.00;;;;;;5036875;28;20060;-73
2021/04/12 11:09:57;;;;;;;0.80;0.40;;;10.40;98.00;;;;;;5036296;28;20100;-73
2021/04/12 11:13:02;;;;;;;2.40;0.50;;;10.30;98.00;;;;;;5036333;28;20096;-72
2021/04/12 11:15:34;;;;;;;0.80;0.40;;;10.40;98.00;;;;;;5035786;28;20030;-73
2021/04/12 11:18:22;;;;;;;0.65;0.30;;;10.50;98.00;;;;;;5036318;28;20032;-73
2021/04/12 11:20:51;;;;;;;0.40;0.25;;;10.50;98.00;;;;;;5036240;28;20026;-73
2021/04/12 11:23:30;;;;;;;0.55;0.20;;;10.40;98.00;;;;;;5036077;28;20442;-73
2021/04/12 11:26:01;;;;;;;2.63;0.35;;;10.40;98.00;;;;;;5034842;28;20056;-73
2021/04/12 11:28:47;;;;;;;5.30;0.30;;;10.50;97.90;;;;;;5038701;28;20021;-73
2021/04/12 11:31:30;;;;;;;0.80;0.25;;;10.50;98.00;;;;;;5040103;28;20030;-73
2021/04/12 11:34:19;;;;;;;3.13;0.30;;;10.60;98.00;;;;;;5039926;28;20025;-73
2021/04/12 11:37:13;;;;;;;1.70;0.28;;;10.60;98.00;;;;;;5039467;28;20053;-73
2021/04/12 11:39:47;;;;;;;0.50;0.30;;;10.70;98.00;;;;;;5038861;28;20368;-73
2021/04/12 11:42:19;;;;;;;0.90;0.30;;;10.60;98.00;;;;;;5039646;28;20069;-72
2021/04/12 11:44:53;;;;;;;0.70;0.30;;;10.60;98.00;;;;;;5039453;28;20026;-73
2021/04/12 11:47:44;;;;;;;0.43;0.30;;;10.60;98.00;;;;;;5039719;28;20030;-73
2021/04/12 11:50:13;;;;;;;205.43;5.78;;;10.60;98.00;;;;;;5039540;28;20025;-73
2021/04/12 11:52:54;;;;;;;573.78;19.38;;;10.50;98.00;;;;;;5039406;28;20021;-72
2021/04/12 11:55:25;;;;;;;778.50;26.40;;;10.50;98.00;;;;;;5039151;28;20025;-72
2021/04/12 11:58:12;;;;;;;3.58;0.30;;;10.50;98.00;;;;;;5039600;28;20041;-73
2021/04/12 12:01:08;;;;;;;520.83;14.52;;;10.40;98.00;;;;;;5039287;28;20025;-72
2021/04/12 12:03:46;;;;;;;449.95;13.05;;;10.30;98.00;;;;;;5039440;28;20030;-73
2021/04/12 12:06:33;;;;;;;269.67;7.45;;;10.30;98.00;;;;;;5039151;28;20422;-73
2021/04/12 12:09:37;;;;;;;71.60;2.53;;;10.30;98.00;;;;;;5039136;28;20037;-73
2021/04/12 12:12:24;;;;;;;31.08;1.83;;;10.30;98.00;;;;;;5038698;28;20426;-73
2021/04/12 12:15:13;;;;;;;96.15;4.30;;;10.20;98.00;;;;;;5039066;28;20030;-73
2021/04/12 12:17:45;;;;;;;19.20;0.90;;;10.30;98.00;;;;;;5038929;28;20421;-73
2021/04/12 12:20:15;;;;;;;0.80;0.40;;;10.30;98.00;;;;;;5039203;28;20079;-73
2021/04/12 12:22:50;;;;;;;8.40;0.50;;;10.40;98.00;;;;;;5039131;28;20030;-73
2021/04/12 12:25:45;;;;;;;7.88;0.70;;;10.30;98.00;;;;;;5038686;28;20084;-73
2021/04/12 12:28:41;;;;;;;100.30;2.92;;;10.20;98.00;;;;;;5038992;28;20104;-73
2021/04/12 12:31:32;;;;;;;134.30;6.88;;;10.30;98.00;;;;;;5038814;28;20026;-73
2021/04/12 12:34:36;;;;;;;310.20;11.43;;;10.30;98.00;;;;;;5039003;28;20402;-73
2021/04/12 12:37:01;;;;;;;541.20;15.52;;;10.40;98.00;;;;;;5038672;28;20371;-73
2021/04/12 12:39:56;;;;;;;481.73;14.55;;;10.60;98.00;;;;;;5038340;28;20140;-73
2021/04/12 12:42:32;;;;;;;540.85;16.60;;;10.60;98.00;;;;;;5038724;28;20025;-73
2021/04/12 12:45:14;;;;;;;637.67;19.75;;;10.60;98.00;;;;;;5038349;28;20091;-73
2021/04/12 12:47:46;;;;;;;409.98;11.23;;;10.60;98.00;;;;;;5038523;28;20027;-72
2021/04/12 12:50:18;;;;;;;550.45;17.17;;;10.50;98.00;;;;;;5038308;28;20191;-72
2021/04/12 12:52:53;;;;;;;148.40;4.72;;;10.50;98.00;;;;;;5038519;28;20095;-73
2021/04/12 12:55:37;;;;;;;400.42;12.13;;;10.40;98.00;;;;;;5038703;28;20063;-73
2021/04/12 12:58:16;;;;;;;804.55;27.90;;;10.40;98.00;;;;;;5038514;28;20481;-72
2021/04/12 13:00:49;;;;;;;645.58;20.38;;;10.40;98.00;;;;;;5038449;28;20025;-73
2021/04/12 13:03:38;;;;;;;18.67;1.15;;;10.40;98.00;;;;;;5038116;28;20029;-73
2021/04/12 13:06:16;;;;;;;140.43;5.28;;;10.30;98.00;;;;;;5038092;28;20317;-73
2021/04/12 13:08:52;;;;;;;679.85;30.15;;;10.30;98.00;;;;;;5038063;28;20053;-72
2021/04/12 13:11:42;;;;;;;474.30;15.80;;;10.40;98.00;;;;;;5038049;28;20022;-73
2021/04/12 13:14:28;;;;;;;306.15;10.07;;;10.40;98.00;;;;;;5038185;28;20048;-73
2021/04/12 13:16:55;;;;;;;887.90;31.27;;;10.40;98.00;;;;;;5038057;28;20021;-73
2021/04/12 13:19:21;;;;;;;626.85;21.65;;;10.30;98.00;;;;;;5037763;28;20025;-73
2021/04/12 13:21:54;;;;;;;674.95;23.08;;;10.30;98.00;;;;;;5037984;28;20413;-73
2021/04/12 13:24:37;;;;;;;1061.47;35.97;;;10.20;98.00;;;;;;5037271;28;20057;-73
2021/04/12 13:27:05;;;;;;;561.33;19.48;;;10.10;98.00;;;;;;5037911;28;20037;-73
2021/04/12 13:29:52;;;;;;;449.83;14.93;;;10.00;98.00;;;;;;5037606;28;20029;-72
2021/04/12 13:32:20;;;;;;;;;;;10.00;98.00;;;;;;5038198;28;20092;-73
2021/04/12 13:34:51;;;;;;;532.95;19.25;;;9.90;98.00;;;;;;5037449;28;19963;-72
2021/04/12 13:37:49;;;;;;;204.02;7.38;;;10.00;98.00;;;;;;5037465;28;20036;-72
2021/04/12 13:40:46;;;;;;;278.45;9.23;;;10.00;98.00;;;;;;5037404;28;20049;-72
2021/04/12 13:43:12;;;;;;;;;;;10.00;98.00;;;;;;5037744;28;20022;-72
2021/04/12 13:45:39;;;;;;;;;;;10.00;98.00;;;;;;5037657;28;20221;-72
2021/04/12 13:48:18;;;;;;;549.00;22.70;;;9.90;98.00;;;;;;5037263;28;19909;-72
2021/04/12 13:50:49;;;;;;;487.13;15.38;;;9.90;98.00;;;;;;5036650;28;20025;-72
2021/04/12 13:53:25;;;;;;;148.30;5.75;;;9.90;98.00;;;;;;5037047;28;20037;-72
2021/04/12 13:56:32;;;;;;;538.58;22.30;;;10.00;98.00;;;;;;5037440;28;20310;-72
2021/04/12 13:59:03;;;;;;;807.30;27.27;;;10.10;98.00;;;;;;5036927;28;20044;-73
2021/04/12 14:01:56;;;;;;;696.70;22.48;;;10.10;98.00;;;;;;5037302;28;20025;-72
2021/04/12 14:04:25;;;;;;;819.35;25.35;;;10.10;98.00;;;;;;5037066;28;20410;-72
2021/04/12 14:07:00;;;;;;;726.72;28.38;;;10.10;98.00;;;;;;5036952;28;20029;-73
2021/04/12 14:09:28;;;;;;;674.70;24.07;;;10.10;98.00;;;;;;5035877;28;20064;-73
2021/04/12 14:11:58;;;;;;;592.80;19.70;;;10.10;98.00;;;;;;5035777;28;20696;-72
2021/04/12 14:14:54;;;;;;;650.63;18.73;;;10.10;98.00;;;;;;5036841;28;20013;-72
2021/04/12 14:17:25;;;;;;;1011.17;36.03;;;10.10;98.00;;;;;;5038091;28;20068;-72
2021/04/12 14:20:01;;;;;;;824.35;26.05;;;10.00;98.00;;;;;;5036989;28;20060;-72
2021/04/12 14:22:30;;;;;;;750.83;29.52;;;10.00;98.00;;;;;;5036786;28;20029;-72